createdAt,value
2022-12-13T00:02:27.039Z,8.70
2022-12-13T00:05:02.414Z,8.60
2022-12-13T00:07:35.520Z,9.40
2022-12-13T00:10:09.282Z,6.80
2022-12-13T00:12:41.190Z,8.20
2022-12-13T00:15:14.758Z,8.30
2022-12-13T00:20:17.859Z,7.70
2022-12-13T00:23:10.761Z,8.70
2022-12-13T00:25:43.397Z,8.20
2022-12-13T00:28:15.643Z,7.80
2022-12-13T00:30:47.840Z,7.80
2022-12-13T00:33:19.987Z,8.50
2022-12-13T00:35:52.131Z,7.80
2022-12-13T00:38:24.781Z,8.60
2022-12-13T00:40:56.979Z,8.80
2022-12-13T00:43:29.890Z,8.30
2022-12-13T00:46:04.575Z,9.00
2022-12-13T00:48:36.991Z,7.50
2022-12-13T00:51:11.421Z,6.70
2022-12-13T00:53:46.330Z,7.70
2022-12-13T00:56:22.048Z,7.80
2022-12-13T00:58:54.611Z,6.90
2022-12-13T01:01:28.637Z,7.30
2022-12-13T01:04:05.985Z,7.10
2022-12-13T01:06:41.599Z,7.30
2022-12-13T01:09:19.253Z,7.50
2022-12-13T01:12:07.801Z,6.70
2022-12-13T06:06:17.817Z,10.00
2022-12-13T06:08:47.985Z,9.90
2022-12-13T06:11:31.232Z,10.00
2022-12-13T06:14:02.382Z,9.40
2022-12-13T06:16:32.396Z,8.20
2022-12-13T06:19:04.533Z,8.80
2022-12-13T06:21:41.716Z,9.60
2022-12-13T06:24:17.678Z,7.90
2022-12-13T06:26:48.291Z,9.10
2022-12-13T06:29:23.075Z,10.70
2022-12-13T06:32:02.176Z,12.30
2022-12-13T06:34:36.393Z,12.00
2022-12-13T06:37:08.376Z,10.90
2022-12-13T06:39:38.596Z,10.70
2022-12-13T06:42:21.674Z,10.10
2022-12-13T06:47:31.209Z,8.90
2022-12-13T06:50:05.653Z,9.90
2022-12-13T06:52:36.156Z,9.50
2022-12-13T06:55:07.536Z,10.70
2022-12-13T06:57:37.747Z,11.20
2022-12-13T07:00:12.990Z,8.20
2022-12-13T07:02:43.115Z,10.40
2022-12-13T07:05:13.427Z,10.40
2022-12-13T07:07:43.530Z,11.40
2022-12-13T07:10:22.166Z,12.50
2022-12-13T07:12:53.676Z,11.30
2022-12-13T07:15:23.796Z,11.70
2022-12-13T07:41:45.299Z,14.70
2022-12-13T07:44:18.589Z,13.60
2022-12-13T07:46:52.458Z,13.50
2022-12-13T07:49:27.508Z,13.30
2022-12-13T07:52:02.288Z,13.10
2022-12-13T07:54:34.989Z,14.00
2022-12-13T07:57:11.338Z,15.50
2022-12-13T07:59:44.001Z,14.70
2022-12-13T08:02:18.166Z,16.90
2022-12-13T08:04:54.490Z,15.10
2022-12-13T08:07:29.038Z,16.00
2022-12-13T08:10:01.881Z,17.00
2022-12-13T08:12:34.529Z,18.60
2022-12-13T08:15:13.776Z,18.80
2022-12-13T08:17:47.322Z,18.40
2022-12-13T08:20:23.249Z,15.20
2022-12-13T08:23:02.198Z,20.30
2022-12-13T08:25:36.277Z,20.70
2022-12-13T08:28:09.020Z,19.60
2022-12-13T08:30:43.235Z,16.60
2022-12-13T08:33:15.847Z,19.20
2022-12-13T08:35:49.482Z,19.40
2022-12-13T08:38:22.526Z,18.70
2022-12-13T08:41:00.368Z,19.60
2022-12-13T08:43:32.918Z,17.90
2022-12-13T08:46:05.780Z,17.30
2022-12-13T08:48:44.425Z,18.30
2022-12-13T08:51:24.575Z,18.50
2022-12-13T08:54:10.452Z,18.60
2022-12-13T08:56:44.330Z,16.60
2022-12-13T08:59:19.303Z,14.30
2022-12-13T09:01:53.934Z,15.70
2022-12-13T09:04:31.703Z,16.30
2022-12-13T09:07:06.148Z,17.80
2022-12-13T09:09:41.991Z,18.40
2022-12-13T09:12:29.629Z,18.00
2022-12-13T09:15:04.189Z,18.00
2022-12-13T09:17:55.456Z,17.50
2022-12-13T09:20:40.723Z,15.30
2022-12-13T09:23:23.990Z,16.20
2022-12-13T09:26:05.327Z,14.50
2022-12-13T09:28:40.450Z,16.30
2022-12-13T09:31:16.762Z,16.10
2022-12-13T09:33:52.101Z,16.70
2022-12-13T09:37:44.166Z,17.10
2022-12-13T09:40:25.407Z,16.60
2022-12-13T09:43:21.642Z,15.10
2022-12-13T09:45:54.742Z,15.10
2022-12-13T09:48:35.220Z,15.40
2022-12-13T09:51:26.256Z,16.70
2022-12-13T09:54:01.530Z,15.30
2022-12-13T09:56:34.936Z,13.90
2022-12-13T09:59:08.479Z,11.60
2022-12-13T10:04:17.109Z,11.90
2022-12-13T10:06:55.727Z,13.10
2022-12-13T10:09:29.158Z,13.20
2022-12-13T10:12:02.439Z,14.00
2022-12-13T10:14:41.496Z,14.00
2022-12-13T10:17:22.897Z,12.50
2022-12-13T10:19:55.967Z,12.00
2022-12-13T10:22:29.021Z,12.50
2022-12-13T10:25:04.172Z,12.50
2022-12-13T10:27:40.675Z,12.10
2022-12-13T10:30:21.794Z,10.80
2022-12-13T10:33:00.667Z,28.90
2022-12-13T10:35:36.606Z,13.30
2022-12-13T10:38:32.487Z,11.80
2022-12-13T10:41:05.818Z,10.40
2022-12-13T10:43:39.168Z,9.90
2022-12-13T10:46:25.415Z,9.30
2022-12-13T10:48:58.325Z,10.30
2022-12-13T10:51:39.563Z,8.90
2022-12-13T10:54:25.727Z,8.30
2022-12-13T10:57:01.717Z,9.50
2022-12-13T10:59:40.298Z,8.10
2022-12-13T11:02:44.482Z,7.70
2022-12-13T11:05:32.771Z,8.90
2022-12-13T11:08:23.414Z,9.60
2022-12-13T11:11:21.098Z,10.80
2022-12-13T11:13:56.848Z,10.10
2022-12-13T11:16:33.174Z,10.60
2022-12-13T11:19:09.621Z,10.10
2022-12-13T11:21:48.478Z,10.00
2022-12-13T11:24:26.467Z,10.50
2022-12-13T11:27:03.981Z,10.20
2022-12-13T11:29:58.209Z,11.10
2022-12-13T11:35:16.609Z,13.40
2022-12-13T11:37:59.828Z,10.30
2022-12-13T11:40:34.318Z,8.90
2022-12-13T11:43:15.538Z,8.70
2022-12-13T11:45:56.248Z,8.30
2022-12-13T11:48:35.806Z,9.10
2022-12-13T11:51:11.619Z,8.20
2022-12-13T11:53:55.338Z,8.00
2022-12-13T11:56:30.348Z,8.10
2022-12-13T11:59:20.608Z,8.00
2022-12-13T12:02:04.827Z,9.90
2022-12-13T12:04:46.040Z,8.40
2022-12-13T12:07:32.704Z,7.50
2022-12-13T12:10:22.459Z,7.80
2022-12-13T12:13:03.678Z,7.90
2022-12-13T12:15:42.776Z,8.10
2022-12-13T12:18:17.840Z,8.60
2022-12-13T12:21:03.049Z,8.00
2022-12-13T12:23:53.028Z,8.00
2022-12-13T12:26:32.492Z,8.10
2022-12-13T12:29:32.078Z,8.20
2022-12-13T12:32:11.787Z,7.70
2022-12-13T12:34:49.207Z,8.30
2022-12-13T12:37:30.199Z,8.60
2022-12-13T12:40:52.276Z,8.90
2022-12-13T12:43:34.431Z,12.00
2022-12-13T12:46:28.487Z,10.70
2022-12-13T12:49:29.646Z,13.20
2022-12-13T12:52:10.019Z,9.30
2022-12-13T12:54:52.919Z,9.20
2022-12-13T12:57:34.870Z,9.70
2022-12-13T13:00:15.903Z,11.00
2022-12-13T13:02:57.059Z,10.50
2022-12-13T13:05:40.703Z,10.80
2022-12-13T13:08:19.819Z,12.10
2022-12-13T13:10:54.037Z,11.30
2022-12-13T13:13:47.138Z,13.00
2022-12-13T13:16:40.627Z,13.20
2022-12-13T13:19:45.606Z,13.90
2022-12-13T13:22:34.414Z,14.90
2022-12-13T13:25:35.217Z,14.70
2022-12-13T13:28:20.457Z,13.10
2022-12-13T13:31:09.416Z,13.60
2022-12-13T13:33:49.266Z,12.90
2022-12-13T13:36:48.849Z,13.50
2022-12-13T13:39:39.514Z,13.90
2022-12-13T13:42:21.675Z,15.00
2022-12-13T13:45:19.868Z,24.40
2022-12-13T13:48:14.960Z,18.60
2022-12-13T13:51:23.259Z,14.20
2022-12-13T13:54:25.646Z,15.80
2022-12-13T13:58:00.326Z,18.60
2022-12-13T14:00:37.002Z,15.50
2022-12-13T14:03:56.820Z,14.80
2022-12-13T14:07:02.296Z,16.10
2022-12-13T14:09:55.239Z,16.70
2022-12-13T14:13:09.104Z,14.90
2022-12-13T14:16:20.783Z,15.40
2022-12-13T14:19:30.036Z,14.80
2022-12-13T14:22:20.267Z,16.20
2022-12-13T14:25:06.963Z,15.60
2022-12-13T14:27:48.960Z,16.30
2022-12-13T14:30:28.915Z,18.50
2022-12-13T14:33:02.498Z,17.40
2022-12-13T14:35:36.138Z,16.70
2022-12-13T14:40:52.467Z,16.30
2022-12-13T14:43:30.496Z,17.90
2022-12-13T14:46:04.386Z,23.40
2022-12-13T14:48:46.810Z,19.60
2022-12-13T14:51:36.488Z,23.30
2022-12-13T14:54:25.485Z,16.90
2022-12-13T14:57:04.591Z,19.00
2022-12-13T14:59:37.497Z,17.30
2022-12-13T15:02:16.909Z,13.00
2022-12-13T15:05:06.800Z,14.60
2022-12-13T15:07:43.489Z,15.90
2022-12-13T15:10:27.677Z,13.70
2022-12-13T15:13:00.919Z,14.00
2022-12-13T15:15:37.127Z,16.00
2022-12-13T15:18:21.740Z,17.30
2022-12-13T15:21:00.809Z,19.60
2022-12-13T15:23:49.214Z,23.60
2022-12-13T15:26:36.160Z,25.60
2022-12-13T15:29:10.981Z,27.60
2022-12-13T15:31:48.606Z,32.10
2022-12-13T15:34:38.008Z,28.10
2022-12-13T15:37:29.235Z,29.20
2022-12-13T15:40:10.607Z,28.50
2022-12-13T15:42:49.037Z,28.20
2022-12-13T15:45:29.191Z,25.60
2022-12-13T15:48:06.620Z,26.30
2022-12-13T15:50:45.541Z,20.20
2022-12-13T15:53:26.828Z,24.80
2022-12-13T15:56:04.746Z,23.90
2022-12-13T15:58:41.419Z,25.40
2022-12-13T16:01:33.237Z,25.60
2022-12-13T16:04:08.674Z,25.30
2022-12-13T16:06:52.995Z,26.70
2022-12-13T16:09:30.298Z,25.80
2022-12-13T16:12:05.773Z,25.00
2022-12-13T16:14:49.313Z,25.50
2022-12-13T16:17:27.406Z,27.60
2022-12-13T16:20:07.725Z,25.40
2022-12-13T16:22:42.529Z,27.80
2022-12-13T16:25:17.942Z,26.80
2022-12-13T16:27:50.818Z,28.60
2022-12-13T16:30:29.130Z,22.70
2022-12-13T16:35:55.297Z,26.90
2022-12-13T16:38:27.770Z,29.10
2022-12-13T16:41:08.211Z,28.60
2022-12-13T16:43:54.238Z,29.10
2022-12-13T16:47:11.547Z,28.50
2022-12-13T16:49:26.209Z,28.20
2022-12-13T16:52:00.315Z,26.20
2022-12-13T16:54:32.847Z,24.40
2022-12-13T16:57:06.057Z,23.00
2022-12-13T16:59:38.688Z,29.10
2022-12-13T17:02:18.128Z,30.60
2022-12-13T17:04:50.986Z,26.70
2022-12-13T17:07:24.019Z,20.70
2022-12-13T17:09:56.588Z,28.40
2022-12-13T17:12:29.528Z,30.30
2022-12-13T17:15:02.171Z,23.20
2022-12-13T17:17:34.930Z,20.70
2022-12-13T17:20:09.164Z,21.60
2022-12-13T17:22:42.128Z,27.10
2022-12-13T17:25:15.639Z,27.10
2022-12-13T17:27:48.546Z,25.80
2022-12-13T17:30:22.278Z,27.90
2022-12-13T17:35:27.598Z,26.70
2022-12-13T17:38:00.128Z,26.60
2022-12-13T17:40:33.498Z,26.90
2022-12-13T17:43:06.066Z,28.10
2022-12-13T17:45:39.417Z,30.70
2022-12-13T17:48:12.291Z,29.40
2022-12-13T17:50:45.109Z,23.50
2022-12-13T17:53:17.970Z,30.80
2022-12-13T17:55:59.469Z,32.50
2022-12-13T17:58:33.320Z,30.60
2022-12-13T18:01:14.678Z,30.90
2022-12-13T18:03:49.128Z,33.60
2022-12-13T18:06:21.628Z,34.60
2022-12-13T18:08:54.519Z,32.80
2022-12-13T18:11:35.019Z,30.70
2022-12-13T18:14:09.805Z,35.60
2022-12-13T18:16:43.398Z,31.30
2022-12-13T18:19:17.043Z,28.90
2022-12-13T18:21:50.119Z,29.40
2022-12-13T18:24:23.009Z,23.90
2022-12-13T18:26:56.040Z,29.50
2022-12-13T18:32:01.419Z,33.20
2022-12-13T18:34:34.457Z,29.20
2022-12-13T18:37:06.917Z,25.40
2022-12-13T18:39:39.758Z,32.70
2022-12-13T18:42:12.497Z,34.10
2022-12-13T18:44:54.761Z,33.10
2022-12-13T18:47:29.248Z,32.80
2022-12-13T18:50:01.996Z,32.50
2022-12-13T18:52:35.039Z,22.70
2022-12-13T18:55:08.758Z,29.20
2022-12-13T18:57:41.188Z,41.70
2022-12-13T19:00:16.822Z,40.40
2022-12-13T19:02:53.697Z,31.60
2022-12-13T19:05:26.656Z,32.30
2022-12-13T19:07:59.238Z,27.60
2022-12-13T19:10:32.160Z,32.90
2022-12-13T19:13:04.610Z,30.20
2022-12-13T19:15:40.044Z,31.00
2022-12-13T19:18:12.760Z,33.70
2022-12-13T19:20:50.931Z,23.70
2022-12-13T19:23:24.630Z,26.70
2022-12-13T19:25:58.942Z,26.80
2022-12-13T19:28:34.968Z,28.40
2022-12-13T19:31:09.827Z,27.90
2022-12-13T19:33:42.557Z,27.00
2022-12-13T19:36:15.589Z,21.70
2022-12-13T19:38:48.219Z,26.00
2022-12-13T19:41:23.438Z,24.70
2022-12-13T19:43:57.699Z,22.20
2022-12-13T19:46:31.105Z,23.60
2022-12-13T19:49:03.678Z,23.80
2022-12-13T19:51:39.849Z,23.20
2022-12-13T19:54:12.927Z,22.90
2022-12-13T19:56:46.467Z,19.40
2022-12-13T20:01:51.461Z,24.70
2022-12-13T20:04:25.357Z,22.90
2022-12-13T20:06:58.078Z,38.70
2022-12-13T20:09:30.941Z,36.20
2022-12-13T20:12:03.846Z,43.40
2022-12-13T20:14:36.557Z,46.80
2022-12-13T20:17:09.389Z,52.40
2022-12-13T20:19:42.050Z,59.50
2022-12-13T20:22:16.307Z,43.80
2022-12-13T20:24:48.846Z,59.50
2022-12-13T20:27:22.159Z,52.10
2022-12-13T20:29:54.860Z,38.80
2022-12-13T20:32:29.196Z,34.60
2022-12-13T20:35:02.128Z,43.70
2022-12-13T20:37:41.507Z,28.60
2022-12-13T20:40:16.387Z,39.40
2022-12-13T20:42:49.289Z,39.20
2022-12-13T20:45:22.159Z,36.70
2022-12-13T20:47:54.907Z,30.80
2022-12-13T20:50:27.580Z,32.80
2022-12-13T20:53:00.798Z,35.60
2022-12-13T20:55:36.079Z,32.30
2022-12-13T20:58:08.936Z,32.10
2022-12-13T21:00:42.056Z,30.20
2022-12-13T21:03:14.858Z,28.80
2022-12-13T21:05:48.419Z,30.60
2022-12-13T21:08:38.701Z,25.90
2022-12-13T21:11:27.612Z,28.70
2022-12-13T21:14:09.090Z,27.90
2022-12-13T21:16:48.173Z,23.40
2022-12-13T21:19:27.799Z,30.50
2022-12-13T21:22:07.620Z,25.10
2022-12-13T21:24:42.500Z,22.20
2022-12-13T21:27:15.837Z,19.90
2022-12-13T21:29:49.419Z,85.20
2022-12-13T21:32:22.088Z,38.30
2022-12-13T21:34:56.779Z,23.80
2022-12-13T21:37:31.229Z,23.50
2022-12-13T21:40:03.950Z,27.50
2022-12-13T21:42:40.860Z,20.60
2022-12-13T21:45:14.908Z,22.20
2022-12-13T21:47:51.811Z,24.90
2022-12-13T21:50:25.640Z,23.40
2022-12-13T21:52:58.060Z,25.30
2022-12-13T21:55:39.644Z,25.10
2022-12-13T21:58:30.948Z,22.40
2022-12-13T22:01:04.309Z,21.70
2022-12-13T22:03:38.080Z,24.10
2022-12-13T22:06:11.257Z,25.40
2022-12-13T22:08:44.010Z,94.50
2022-12-13T22:11:21.718Z,26.90
2022-12-13T22:13:57.409Z,23.10
2022-12-13T22:19:01.937Z,24.30
2022-12-13T22:21:34.941Z,108.30
2022-12-13T22:24:13.468Z,44.10
2022-12-13T22:26:46.889Z,34.20
2022-12-13T22:29:22.718Z,28.60
2022-12-13T22:31:55.333Z,32.40
2022-12-13T22:34:27.980Z,28.70
2022-12-13T22:37:01.376Z,22.10
2022-12-13T22:39:34.035Z,25.00
2022-12-13T22:42:07.055Z,57.60
2022-12-13T22:44:40.138Z,29.10
2022-12-13T22:47:12.816Z,32.00
2022-12-13T22:49:45.247Z,25.00
2022-12-13T22:52:21.808Z,31.70
2022-12-13T22:54:54.227Z,35.20
2022-12-13T22:57:26.757Z,33.40
2022-12-13T22:59:59.352Z,31.90
2022-12-13T23:02:31.963Z,27.10
2022-12-13T23:05:05.458Z,30.50
2022-12-13T23:07:39.386Z,29.80
2022-12-13T23:10:32.858Z,30.20
2022-12-13T23:13:05.577Z,27.00
2022-12-13T23:15:49.285Z,22.20
2022-12-13T23:20:53.773Z,23.60
2022-12-13T23:23:26.418Z,25.10
2022-12-13T23:25:59.103Z,20.30
2022-12-13T23:28:31.726Z,20.60
2022-12-13T23:31:05.636Z,22.30
2022-12-13T23:33:39.397Z,23.70
2022-12-13T23:38:45.597Z,20.40
2022-12-13T23:43:58.598Z,18.70
2022-12-13T23:46:33.643Z,18.60
2022-12-13T23:49:09.079Z,16.10
2022-12-13T23:51:42.297Z,17.30
2022-12-13T23:54:19.596Z,20.10
2022-12-13T23:56:52.017Z,19.90
2022-12-13T23:59:26.279Z,18.20
